To NAV CANADA Home Page Login to a new session Search on AWWS site Feedback and Comments Disclaimer Vers la page française équivalente Tips FAQ What's new on the site To the Forecasts and Observations / NOTAM section To "File a Flight Plan" website Publications and other links Update of the User's profile FIC Telephone Numbers My Weather Data Folder Route Weather Data Regional Weather Data Local Weather Data To the Forecasts and Observations / NOTAM section
Request Generated 06/26/2017 at 22:35:14 UTC . Weather information available at that time is displayed.

METAR/TAF

KUUJJUAQ/QC    

METAR CYVP 262200Z 33008KT 12SM -RA FEW012 BKN016 BKN026 OVC045 04/03
A2942 RMK SF1SC4SC2SC1 SLP966=
METAR CYVP 262100Z 32009KT 12SM -RA BKN016 BKN026 OVC035 05/03 A2940
RMK SC6SC1SC1 SLP959=
METAR CYVP 262000Z 31010G18KT 12SM -RA FEW012 SCT016 BKN021 OVC030
06/04 A2938 RMK SF2SC2SC3SC1 SLP952=

TAF CYVP 261738Z 2618/2706 29012G22KT 6SM -RA BR BKN015 OVC030 TEMPO
2618/2704 P6SM -RA SCT015 OVC030
FM270400 30010G20KT 6SM -RASN BR OVC010 TEMPO 2704/2706 3SM BR
OVC006
RMK NXT FCST BY 270000Z=
Your time UTC time
Weather data provided by Environment Canada and NAV CANADA